Time;durP1;ratioP1;P1;durP2;ratioP2;P2;SDS_P1;SDS_P2;PMS_P1;PMS_P2;Temp;Humidity;BMP_temperature;BMP_pressure;BME280_temperature;BME280_humidity;BME280_pressure;Samples;Min_cycle;Max_cycle;Signal;HPM_P1;HPM_P2
2021/06/25 00:02:00;;;;;;;;;23.00;20.75;;;;;22.18;100.00;100901.47;3724700;38;20468;-63
2021/06/25 00:04:30;;;;;;;;;29.00;28.00;;;;;22.15;100.00;100893.72;3724728;38;20450;-64
2021/06/25 00:06:58;;;;;;;;;28.25;27.00;;;;;22.17;100.00;100893.47;3724718;38;20464;-61
2021/06/25 00:09:27;;;;;;;;;26.50;24.75;;;;;22.19;100.00;100894.03;3726719;38;20466;-62
2021/06/25 00:11:54;;;;;;;;;26.75;26.00;;;;;22.20;100.00;100881.94;3724873;38;20446;-62
2021/06/25 00:14:22;;;;;;;;;24.00;23.75;;;;;22.24;100.00;100883.09;3724642;37;20461;-61
2021/06/25 00:16:51;;;;;;;;;28.00;27.00;;;;;22.21;100.00;100870.66;3724823;38;20436;-63
2021/06/25 00:19:21;;;;;;;;;28.00;26.50;;;;;22.17;100.00;100863.13;3724514;37;20459;-62
2021/06/25 00:21:51;;;;;;;;;27.00;27.00;;;;;22.09;100.00;100858.88;3724515;38;20434;-64
2021/06/25 00:24:19;;;;;;;;;27.25;27.25;;;;;22.05;100.00;100853.03;3724868;37;20403;-63
2021/06/25 00:26:50;;;;;;;;;26.25;25.50;;;;;22.04;100.00;100856.03;3724241;38;20415;-61
2021/06/25 00:29:19;;;;;;;;;24.25;24.25;;;;;21.96;100.00;100864.69;3724485;37;20428;-63
2021/06/25 00:31:51;;;;;;;;;27.75;27.00;;;;;21.86;100.00;100862.62;3724463;37;20442;-63
2021/06/25 00:34:18;;;;;;;;;31.75;28.25;;;;;21.84;100.00;100867.53;3724753;37;20395;-63
2021/06/25 00:36:50;;;;;;;;;27.00;25.50;;;;;21.84;100.00;100878.56;3724557;37;20425;-63
2021/06/25 00:39:16;;;;;;;;;27.00;26.25;;;;;21.85;100.00;100874.72;3724512;37;20430;-63
2021/06/25 00:41:43;;;;;;;;;26.75;26.75;;;;;21.84;100.00;100872.22;3724682;37;20393;-61
2021/06/25 00:44:18;;;;;;;;;30.00;30.00;;;;;21.78;100.00;100872.16;3724778;37;20414;-62
2021/06/25 00:46:44;;;;;;;;;26.25;25.25;;;;;21.78;100.00;100874.09;3724566;37;20402;-63
2021/06/25 00:49:12;;;;;;;;;26.75;26.25;;;;;21.86;100.00;100873.63;3724612;37;20397;-63
2021/06/25 00:51:39;;;;;;;;;35.00;31.00;;;;;22.02;100.00;100872.84;3724488;37;20398;-63
2021/06/25 00:54:10;;;;;;;;;35.75;32.75;;;;;22.26;100.00;100862.47;3724566;38;20380;-62
2021/06/25 00:56:37;;;;;;;;;36.00;33.25;;;;;22.34;100.00;100853.75;3724086;38;20368;-63
2021/06/25 00:59:05;;;;;;;;;34.25;32.00;;;;;22.54;100.00;100866.12;3724516;37;20377;-62
2021/06/25 01:01:31;;;;;;;;;33.50;31.50;;;;;22.64;100.00;100860.75;3724514;38;20383;-63
2021/06/25 01:03:59;;;;;;;;;35.75;33.00;;;;;22.64;100.00;100863.50;3724543;37;20388;-63
2021/06/25 01:06:30;;;;;;;;;32.25;30.50;;;;;22.68;100.00;100861.91;3724321;38;20368;-63
2021/06/25 01:08:57;;;;;;;;;33.00;31.75;;;;;22.66;100.00;100862.16;3724376;37;20360;-62
2021/06/25 01:11:28;;;;;;;;;34.50;31.25;;;;;22.67;100.00;100855.56;3724641;38;20359;-63
2021/06/25 01:13:55;;;;;;;;;33.25;31.00;;;;;22.69;100.00;100858.91;3724759;37;20359;-63
2021/06/25 01:16:21;;;;;;;;;32.00;30.50;;;;;22.70;100.00;100862.50;3724575;37;20373;-63
2021/06/25 01:18:48;;;;;;;;;32.00;30.50;;;;;22.69;100.00;100860.81;3724570;37;20342;-63
2021/06/25 01:21:19;;;;;;;;;32.25;30.25;;;;;22.71;100.00;100864.16;3724693;37;20336;-63
2021/06/25 01:23:46;;;;;;;;;33.75;32.00;;;;;22.71;100.00;100865.00;3724537;37;20372;-61
2021/06/25 01:26:12;;;;;;;;;29.00;29.00;;;;;22.65;100.00;100868.78;3724614;37;20336;-62
2021/06/25 01:28:39;;;;;;;;;35.50;32.00;;;;;22.66;100.00;100864.94;3724670;38;20337;-63
2021/06/25 01:31:06;;;;;;;;;31.00;30.25;;;;;22.69;100.00;100871.84;3724716;38;20316;-63
2021/06/25 01:33:34;;;;;;;;;33.00;31.75;;;;;22.64;100.00;100871.78;3724804;37;20319;-62
2021/06/25 01:36:01;;;;;;;;;34.00;30.25;;;;;22.58;100.00;100868.13;3724800;38;20328;-62
2021/06/25 01:38:30;;;;;;;;;31.50;30.25;;;;;22.47;100.00;100860.81;3724724;37;20341;-62
2021/06/25 01:40:58;;;;;;;;;27.50;26.75;;;;;22.34;100.00;100862.03;3724346;38;20329;-64
2021/06/25 01:43:27;;;;;;;;;30.75;30.00;;;;;22.31;100.00;100862.53;3724559;37;20330;-64
2021/06/25 01:45:59;;;;;;;;;26.50;26.25;;;;;22.20;100.00;100866.22;3725130;38;20311;-61
2021/06/25 01:48:27;;;;;;;;;29.00;29.00;;;;;22.18;100.00;100862.06;3725243;38;20329;-62
2021/06/25 01:50:55;;;;;;;;;28.50;28.50;;;;;22.09;100.00;100864.41;3724667;37;21316;-63
2021/06/25 01:53:21;;;;;;;;;23.50;23.50;;;;;21.96;100.00;100862.78;3724586;37;20323;-62
2021/06/25 01:55:50;;;;;;;;;28.25;28.25;;;;;21.82;100.00;100864.22;3724724;38;21309;-61
2021/06/25 01:58:24;;;;;;;;;29.25;28.00;;;;;21.68;100.00;100866.47;3724687;37;20323;-63
2021/06/25 02:01:15;;;;;;;;;31.75;28.50;;;;;21.57;100.00;100867.37;3724769;38;21316;-62
2021/06/25 02:03:45;;;;;;;;;25.50;24.75;;;;;21.57;100.00;100872.88;3724748;38;21290;-62
2021/06/25 02:06:13;;;;;;;;;25.50;24.75;;;;;21.64;100.00;100875.47;3724359;38;21286;-63
2021/06/25 02:08:41;;;;;;;;;25.75;25.25;;;;;21.61;100.00;100873.22;3724741;37;21291;-61
2021/06/25 02:11:14;;;;;;;;;27.50;25.75;;;;;21.55;100.00;100868.72;3724614;37;21282;-62
2021/06/25 02:13:42;;;;;;;;;26.25;26.25;;;;;21.47;100.00;100872.69;3724716;38;21296;-62
2021/06/25 02:16:08;;;;;;;;;27.75;27.00;;;;;21.49;100.00;100873.28;3724726;37;21278;-63
2021/06/25 02:18:36;;;;;;;;;26.75;25.75;;;;;21.53;100.00;100879.97;3724623;37;21258;-63
2021/06/25 02:21:03;;;;;;;;;27.25;27.25;;;;;21.54;100.00;100887.16;3724382;38;21291;-61
2021/06/25 02:23:31;;;;;;;;;27.25;27.25;;;;;21.50;100.00;100879.62;3724792;37;21284;-63
2021/06/25 02:25:57;;;;;;;;;29.50;29.50;;;;;21.53;100.00;100881.88;3724950;37;21246;-63
2021/06/25 02:28:25;;;;;;;;;26.00;25.25;;;;;21.46;100.00;100877.37;3724652;38;21249;-62
2021/06/25 02:30:51;;;;;;;;;24.00;24.00;;;;;21.37;100.00;100875.25;3724734;37;21245;-63
2021/06/25 02:33:19;;;;;;;;;26.25;25.75;;;;;21.26;100.00;100868.75;3724723;38;21250;-62
2021/06/25 02:35:46;;;;;;;;;24.75;24.50;;;;;21.33;100.00;100872.16;3724623;38;21240;-61
2021/06/25 02:38:14;;;;;;;;;27.25;26.25;;;;;21.44;100.00;100868.53;3724659;37;21262;-62
2021/06/25 02:40:40;;;;;;;;;28.75;28.50;;;;;21.52;100.00;100870.03;3724490;37;21224;-62
2021/06/25 02:43:07;;;;;;;;;24.75;24.75;;;;;21.55;100.00;100854.94;3724862;38;21259;-61
2021/06/25 02:45:34;;;;;;;;;22.50;22.50;;;;;21.66;100.00;100873.31;3724682;38;21219;-61
2021/06/25 02:48:00;;;;;;;;;25.25;25.25;;;;;21.72;100.00;100878.66;3724601;38;21254;-63
2021/06/25 02:50:27;;;;;;;;;25.75;24.50;;;;;21.75;100.00;100880.09;3724595;38;21228;-63
2021/06/25 02:52:53;;;;;;;;;26.25;25.25;;;;;21.71;100.00;100889.94;3725254;38;21224;-61
2021/06/25 02:55:21;;;;;;;;;26.75;26.25;;;;;21.65;100.00;100890.94;3726036;37;21213;-61
2021/06/25 02:57:48;;;;;;;;;26.75;26.75;;;;;21.64;100.00;100886.50;3724666;38;21221;-63
2021/06/25 03:00:17;;;;;;;;;28.25;27.75;;;;;21.62;100.00;100881.25;3724575;37;21228;-63
2021/06/25 03:02:45;;;;;;;;;34.50;31.75;;;;;21.74;100.00;100876.50;3724332;38;21230;-63
2021/06/25 03:05:13;;;;;;;;;30.00;29.75;;;;;21.89;100.00;100873.12;3724642;37;21193;-63
2021/06/25 03:07:41;;;;;;;;;27.50;27.25;;;;;21.94;100.00;100867.72;3724589;37;21216;-63
2021/06/25 03:10:08;;;;;;;;;25.75;25.75;;;;;22.02;100.00;100867.31;3724578;38;21187;-62
2021/06/25 03:12:35;;;;;;;;;28.50;28.50;;;;;22.16;100.00;100869.75;3724687;38;21216;-62
2021/06/25 03:15:05;;;;;;;;;30.25;30.00;;;;;22.28;100.00;100870.47;3724621;37;21187;-62
2021/06/25 03:17:35;;;;;;;;;30.25;29.75;;;;;22.33;100.00;100876.06;3724199;38;21183;-62
2021/06/25 03:20:06;;;;;;;;;31.75;30.75;;;;;22.34;100.00;100863.94;3724104;37;21462;-64
2021/06/25 03:22:33;;;;;;;;;31.25;30.00;;;;;22.38;100.00;100862.31;3724650;38;21209;-64
2021/06/25 03:25:01;;;;;;;;;29.50;29.50;;;;;22.46;100.00;100857.22;3724605;38;21172;-63
2021/06/25 03:27:29;;;;;;;;;31.00;30.25;;;;;22.53;100.00;100859.78;3724527;38;21198;-61
2021/06/25 03:29:56;;;;;;;;;34.25;32.00;;;;;22.59;100.00;100852.41;3724550;37;21184;-61
2021/06/25 03:32:22;;;;;;;;;36.00;32.25;;;;;22.59;100.00;100842.22;3725987;37;21186;-62
2021/06/25 03:34:49;;;;;;;;;34.00;32.00;;;;;22.68;100.00;100839.84;3724901;37;21177;-61
2021/06/25 03:37:17;;;;;;;;;37.25;32.50;;;;;22.79;100.00;100841.66;3725102;37;21159;-62
2021/06/25 03:39:43;;;;;;;;;33.50;31.50;;;;;22.89;100.00;100838.16;3725114;37;21150;-63
2021/06/25 03:42:10;;;;;;;;;32.50;31.00;;;;;23.04;100.00;100839.19;3725157;38;21155;-62
2021/06/25 03:44:38;;;;;;;;;47.25;39.50;;;;;23.27;99.74;100840.81;3725141;38;21141;-61
2021/06/25 03:47:08;;;;;;;;;41.25;36.00;;;;;23.35;98.90;100842.28;3724623;37;21152;-61
2021/06/25 03:49:35;;;;;;;;;38.00;34.25;;;;;23.47;98.35;100844.84;3724788;37;21149;-61
2021/06/25 03:52:05;;;;;;;;;35.75;32.00;;;;;23.61;98.39;100835.91;3724519;37;21149;-63
2021/06/25 03:54:32;;;;;;;;;34.25;32.00;;;;;23.73;97.91;100839.31;3724718;37;21141;-61
2021/06/25 03:57:01;;;;;;;;;41.00;35.50;;;;;23.80;97.59;100841.03;3724638;37;21159;-63
2021/06/25 03:59:28;;;;;;;;;38.75;35.25;;;;;23.90;96.92;100839.19;3724256;38;21155;-61
2021/06/25 04:01:56;;;;;;;;;40.00;35.25;;;;;23.92;96.57;100833.37;3724610;38;21149;-62
2021/06/25 04:04:25;;;;;;;;;37.25;34.25;;;;;24.01;96.66;100818.78;3724686;37;21141;-61
2021/06/25 04:06:53;;;;;;;;;37.00;34.00;;;;;24.08;96.21;100821.31;3724370;37;21125;-63
2021/06/25 04:09:19;;;;;;;;;38.50;35.25;;;;;24.24;96.06;100823.09;3724815;38;21120;-63
2021/06/25 04:11:47;;;;;;;;;36.50;33.25;;;;;24.32;95.36;100814.31;3724690;38;21088;-63
2021/06/25 04:14:13;;;;;;;;;41.00;36.25;;;;;24.48;95.57;100814.38;3724296;38;21120;-62
2021/06/25 04:16:40;;;;;;;;;40.75;36.25;;;;;24.53;94.62;100815.22;3724679;37;21118;-62
2021/06/25 04:19:09;;;;;;;;;41.25;36.50;;;;;24.58;94.43;100820.78;3724639;38;21119;-62
2021/06/25 04:21:35;;;;;;;;;41.50;36.50;;;;;24.65;94.24;100815.84;3724691;37;21091;-62
2021/06/25 04:24:02;;;;;;;;;40.75;36.00;;;;;24.77;93.87;100807.31;3724671;38;21106;-62
2021/06/25 04:26:29;;;;;;;;;39.00;35.00;;;;;24.81;93.71;100818.66;3724763;38;21091;-62
2021/06/25 04:28:55;;;;;;;;;39.25;35.00;;;;;24.79;92.83;100821.69;3724655;38;21097;-61
2021/06/25 04:31:23;;;;;;;;;41.50;36.00;;;;;24.54;92.66;100783.69;3724804;37;21107;-61
2021/06/25 04:33:51;;;;;;;;;46.00;39.75;;;;;24.82;92.60;100831.41;3724682;38;21070;-62
2021/06/25 04:36:17;;;;;;;;;40.00;36.00;;;;;24.95;92.60;100841.97;3724696;38;21089;-63
2021/06/25 04:38:43;;;;;;;;;42.25;36.75;;;;;24.93;92.05;100845.00;3724941;38;21032;-63
2021/06/25 04:41:10;;;;;;;;;42.50;36.50;;;;;24.89;91.70;100848.59;3724613;37;21085;-61
2021/06/25 04:43:38;;;;;;;;;40.50;36.00;;;;;24.93;92.00;100847.78;3724665;37;21090;-61
2021/06/25 04:46:04;;;;;;;;;45.75;39.25;;;;;25.04;91.63;100849.47;3724627;37;21076;-61
2021/06/25 04:48:31;;;;;;;;;46.75;39.75;;;;;24.85;91.71;100844.69;3724792;38;21090;-63
2021/06/25 04:50:59;;;;;;;;;45.25;39.25;;;;;24.90;92.04;100842.78;3724779;37;21060;-64
2021/06/25 04:53:26;;;;;;;;;44.00;38.25;;;;;24.77;91.53;100834.16;3724707;37;21110;-64
2021/06/25 04:55:53;;;;;;;;;46.50;39.25;;;;;24.95;91.81;100840.03;3724641;37;21134;-62
2021/06/25 04:58:26;;;;;;;;;43.25;37.00;;;;;25.08;91.91;100830.37;3724591;37;21055;-62
2021/06/25 05:00:57;;;;;;;;;43.75;37.25;;;;;25.16;91.45;100824.31;3724551;38;21156;-62
2021/06/25 05:03:25;;;;;;;;;40.50;35.25;;;;;25.17;89.86;100834.28;3724855;38;21067;-62
2021/06/25 05:05:53;;;;;;;;;36.75;33.25;;;;;25.11;90.55;100832.59;3724552;38;21072;-63
2021/06/25 05:08:20;;;;;;;;;40.50;35.75;;;;;25.17;90.47;100839.00;3724401;38;21046;-63
2021/06/25 05:10:46;;;;;;;;;41.25;36.00;;;;;25.33;90.10;100841.53;3724717;38;21063;-64
2021/06/25 05:13:15;;;;;;;;;42.50;37.50;;;;;25.52;89.96;100846.50;3724613;37;21039;-61
2021/06/25 05:15:41;;;;;;;;;43.00;37.25;;;;;25.62;89.26;100846.53;3724638;37;21028;-62
2021/06/25 05:18:23;;;;;;;;;38.50;35.00;;;;;25.63;88.96;100848.19;3724632;37;21049;-62
2021/06/25 05:20:54;;;;;;;;;42.75;36.75;;;;;25.60;88.75;100837.66;3724409;37;21036;-63
2021/06/25 05:23:21;;;;;;;;;43.50;36.75;;;;;25.61;88.81;100833.78;3724808;37;21036;-63
2021/06/25 05:25:48;;;;;;;;;43.00;38.00;;;;;25.77;88.42;100841.03;3724917;37;21046;-62
2021/06/25 05:28:16;;;;;;;;;39.50;35.25;;;;;25.78;87.70;100830.75;3724924;37;21031;-62
2021/06/25 05:30:49;;;;;;;;;39.00;35.00;;;;;25.86;87.34;100836.59;3724693;37;21033;-64
2021/06/25 05:33:17;;;;;;;;;40.50;36.00;;;;;25.99;87.87;100844.34;3724887;37;21019;-63
2021/06/25 05:35:45;;;;;;;;;42.25;36.25;;;;;26.24;87.30;100859.25;3724713;38;21115;-63
2021/06/25 05:38:14;;;;;;;;;42.75;36.25;;;;;26.38;85.97;100855.66;3725521;37;21010;-62
2021/06/25 05:40:43;;;;;;;;;40.25;35.50;;;;;26.49;85.60;100852.88;3725531;37;21017;-63
2021/06/25 05:43:11;;;;;;;;;41.25;36.00;;;;;26.60;84.42;100854.47;3724913;37;21040;-62
2021/06/25 05:45:40;;;;;;;;;41.00;35.50;;;;;26.74;84.56;100863.84;3724334;38;20993;-63
2021/06/25 05:48:10;;;;;;;;;53.75;44.00;;;;;26.90;84.20;100864.63;3725233;37;21004;-64
2021/06/25 05:50:38;;;;;;;;;41.75;36.75;;;;;26.96;83.56;100863.53;3724679;37;21045;-62
2021/06/25 05:53:05;;;;;;;;;39.25;35.00;;;;;27.00;83.78;100862.66;3724716;38;21008;-63
2021/06/25 05:55:32;;;;;;;;;39.50;35.00;;;;;27.02;84.12;100860.44;3724702;37;21010;-62
2021/06/25 05:57:58;;;;;;;;;47.00;39.25;;;;;26.86;84.27;100866.31;3724594;38;21006;-61
2021/06/25 06:00:25;;;;;;;;;43.50;37.25;;;;;26.94;84.93;100866.56;3724704;37;20979;-61
2021/06/25 06:02:53;;;;;;;;;45.25;39.00;;;;;27.09;84.54;100868.44;3724428;37;20984;-62
2021/06/25 06:05:21;;;;;;;;;44.75;38.00;;;;;27.31;84.31;100870.81;3724636;38;20991;-62
2021/06/25 06:07:49;;;;;;;;;42.00;36.75;;;;;27.42;82.13;100868.81;3724497;37;20973;-61
2021/06/25 06:10:20;;;;;;;;;38.50;34.75;;;;;27.48;82.38;100874.03;3724538;37;20991;-61
2021/06/25 06:12:48;;;;;;;;;42.25;36.25;;;;;27.46;81.57;100875.44;3724274;37;20968;-61
2021/06/25 06:15:17;;;;;;;;;35.75;32.75;;;;;27.45;81.47;100882.13;3724297;37;20977;-63
2021/06/25 06:17:47;;;;;;;;;40.75;34.50;;;;;27.36;81.32;100885.50;3724475;38;20945;-63
2021/06/25 06:20:18;;;;;;;;;32.25;30.25;;;;;27.33;81.95;100888.88;3725478;37;20967;-62
2021/06/25 06:31:23;;;;;;;;;27.75;27.00;;;;;27.57;82.70;100882.56;3724467;37;20917;-61
2021/06/25 06:34:07;;;;;;;;;33.00;31.00;;;;;27.80;81.92;100886.62;3724733;38;20958;-61
2021/06/25 06:36:42;;;;;;;;;37.00;32.75;;;;;27.94;81.38;100891.22;3724446;37;20939;-64
2021/06/25 06:39:09;;;;;;;;;32.00;31.00;;;;;28.00;81.38;100890.06;3724503;37;20922;-61
2021/06/25 06:41:37;;;;;;;;;31.00;29.75;;;;;28.06;79.30;100893.63;3724746;38;20919;-61
2021/06/25 06:44:07;;;;;;;;;33.75;31.75;;;;;28.21;79.43;100892.62;3724785;38;20938;-60
2021/06/25 06:46:36;;;;;;;;;29.50;29.00;;;;;28.35;79.41;100896.44;3724810;37;20907;-60
2021/06/25 06:49:04;;;;;;;;;31.00;29.00;;;;;28.43;79.04;100897.75;3724715;38;20917;-60
2021/06/25 06:51:33;;;;;;;;;27.00;27.00;;;;;28.53;78.54;100901.25;3724323;37;20920;-60
2021/06/25 06:54:02;;;;;;;;;32.00;29.75;;;;;28.49;78.96;100894.63;3724690;37;20918;-60
2021/06/25 06:56:32;;;;;;;;;27.75;26.75;;;;;28.40;79.20;100901.13;3724704;37;20908;-60
2021/06/25 06:59:00;;;;;;;;;32.75;30.50;;;;;28.44;79.55;100903.03;3724704;37;20913;-62
2021/06/25 07:01:28;;;;;;;;;28.00;27.00;;;;;28.63;79.92;100901.13;3724601;38;20913;-61
2021/06/25 07:03:55;;;;;;;;;31.25;29.00;;;;;28.66;78.79;100905.25;3724610;38;20884;-62
2021/06/25 07:06:23;;;;;;;;;27.75;27.25;;;;;28.63;78.72;100895.53;3724634;38;20881;-61
2021/06/25 07:08:49;;;;;;;;;31.00;28.50;;;;;28.72;78.58;100901.28;3724370;37;20889;-63
2021/06/25 07:11:16;;;;;;;;;26.75;26.75;;;;;28.77;78.69;100903.19;3724171;38;20888;-60
2021/06/25 07:13:42;;;;;;;;;25.75;24.50;;;;;28.91;78.36;100898.59;3724400;37;20882;-62
2021/06/25 07:16:12;;;;;;;;;31.75;30.00;;;;;28.96;78.93;100904.13;3724483;38;20933;-61
2021/06/25 07:18:38;;;;;;;;;29.00;28.25;;;;;29.02;78.81;100897.34;3724453;38;20857;-62
2021/06/25 07:21:05;;;;;;;;;34.00;31.00;;;;;29.10;78.22;100893.91;3724362;37;20871;-61
2021/06/25 07:23:31;;;;;;;;;29.00;29.00;;;;;28.93;78.24;100890.78;3724146;38;20888;-67
2021/06/25 07:25:58;;;;;;;;;26.50;26.50;;;;;28.82;78.06;100892.84;3724277;37;20849;-63
2021/06/25 07:28:24;;;;;;;;;25.00;24.50;;;;;28.79;77.26;100890.63;3724816;38;20872;-63
2021/06/25 07:30:51;;;;;;;;;23.25;23.00;;;;;28.89;76.42;100892.50;3724852;37;20844;-64
2021/06/25 07:33:17;;;;;;;;;19.75;18.50;;;;;29.11;73.90;100889.16;3724787;37;20874;-66
2021/06/25 07:35:44;;;;;;;;;18.00;18.00;;;;;29.22;74.93;100888.69;3724504;37;20880;-62
2021/06/25 07:38:11;;;;;;;;;22.25;21.75;;;;;29.31;75.08;100892.47;3724486;37;20899;-62
2021/06/25 07:40:38;;;;;;;;;22.00;21.25;;;;;29.36;75.07;100890.75;3724208;37;20877;-61
2021/06/25 07:43:04;;;;;;;;;23.25;22.00;;;;;29.42;74.01;100892.34;3724422;37;20840;-63
2021/06/25 07:45:32;;;;;;;;;23.75;23.00;;;;;29.44;74.42;100892.88;3724604;38;20843;-63
2021/06/25 07:48:00;;;;;;;;;21.50;21.50;;;;;29.53;74.10;100888.28;3724535;38;20856;-61
2021/06/25 07:50:26;;;;;;;;;25.50;25.00;;;;;29.67;73.67;100885.53;3724323;37;20855;-64
2021/06/25 07:52:53;;;;;;;;;24.00;21.75;;;;;29.78;72.25;100884.25;3724547;37;20856;-63
2021/06/25 07:55:19;;;;;;;;;25.75;23.25;;;;;29.93;71.26;100875.62;3724670;37;20843;-62
2021/06/25 07:57:46;;;;;;;;;20.75;18.25;;;;;29.92;70.95;100874.81;3724647;38;20828;-62
2021/06/25 08:00:14;;;;;;;;;20.75;18.75;;;;;30.03;70.72;100861.53;3724681;37;20811;-63
2021/06/25 08:02:44;;;;;;;;;21.75;20.75;;;;;29.97;70.90;100855.19;3724876;37;20826;-60
2021/06/25 08:05:11;;;;;;;;;22.00;20.25;;;;;30.13;70.45;100860.53;3724787;37;20816;-61
2021/06/25 08:07:38;;;;;;;;;22.50;20.00;;;;;30.21;70.86;100862.56;3724727;38;20848;-62
2021/06/25 08:10:06;;;;;;;;;20.50;19.50;;;;;30.29;70.37;100861.88;3724733;38;20820;-62
2021/06/25 08:12:34;;;;;;;;;17.00;17.00;;;;;30.23;70.23;100871.47;3724900;38;20811;-61
2021/06/25 08:15:00;;;;;;;;;19.25;18.50;;;;;30.24;70.11;100875.94;3724350;37;20837;-63
2021/06/25 08:17:29;;;;;;;;;25.75;20.00;;;;;30.33;70.02;100876.06;3724763;37;20806;-63
2021/06/25 08:19:55;;;;;;;;;18.00;16.00;;;;;30.40;69.67;100873.69;3724707;38;20838;-62
2021/06/25 08:22:22;;;;;;;;;18.00;14.50;;;;;30.39;69.13;100881.22;3724701;37;20824;-62
2021/06/25 08:24:51;;;;;;;;;18.00;18.00;;;;;30.52;69.12;100888.81;3725311;38;20790;-63
2021/06/25 08:27:18;;;;;;;;;17.25;17.00;;;;;30.42;68.83;100894.59;3724655;38;20803;-61
2021/06/25 08:29:45;;;;;;;;;16.75;15.00;;;;;30.35;68.09;100898.91;3724826;37;20878;-61
2021/06/25 08:32:11;;;;;;;;;15.50;15.50;;;;;30.33;68.86;100885.25;3724570;38;20888;-60
2021/06/25 08:34:38;;;;;;;;;15.00;15.00;;;;;30.37;67.32;100891.06;3724292;37;20775;-60
2021/06/25 08:37:07;;;;;;;;;13.75;12.75;;;;;30.47;68.58;100893.66;3724489;37;20784;-59
2021/06/25 08:39:35;;;;;;;;;19.00;18.00;;;;;30.64;66.77;100898.69;3724772;37;20783;-63
2021/06/25 08:42:03;;;;;;;;;16.25;15.00;;;;;30.69;66.46;100898.53;3724503;38;20814;-60
2021/06/25 08:44:34;;;;;;;;;15.75;15.00;;;;;30.78;67.75;100891.09;3724752;38;20879;-61
2021/06/25 08:47:01;;;;;;;;;18.00;16.75;;;;;30.95;67.21;100905.28;3724675;37;20878;-61
2021/06/25 08:49:29;;;;;;;;;19.75;19.25;;;;;31.03;67.14;100901.75;3724694;37;20787;-61
2021/06/25 08:51:56;;;;;;;;;35.00;32.00;;;;;31.17;66.12;100899.81;3724788;37;20759;-61
2021/06/25 08:54:23;;;;;;;;;19.00;17.75;;;;;31.27;67.09;100907.13;3724878;38;20677;-60
2021/06/25 08:56:49;;;;;;;;;15.25;15.25;;;;;31.34;66.26;100896.34;3724429;37;20769;-60
2021/06/25 08:59:19;;;;;;;;;18.00;17.00;;;;;31.33;66.42;100894.69;3724792;38;20762;-63
2021/06/25 09:01:50;;;;;;;;;17.75;15.50;;;;;31.40;66.04;100889.47;3724710;37;20758;-61
2021/06/25 09:04:37;;;;;;;;;14.00;13.25;;;;;31.50;66.08;100889.25;3724664;37;20725;-61
2021/06/25 09:07:11;;;;;;;;;18.00;15.00;;;;;31.58;64.87;100879.28;3724616;37;20847;-62
2021/06/25 09:09:43;;;;;;;;;13.75;12.25;;;;;31.49;65.45;100881.16;3724828;37;20834;-62
2021/06/25 09:12:23;;;;;;;;;15.25;14.25;;;;;30.94;66.44;100879.28;3724596;38;20717;-60
2021/06/25 09:15:14;;;;;;;;;13.50;13.50;;;;;30.95;65.59;100877.31;3724240;38;20721;-62
2021/06/25 09:18:13;;;;;;;;;15.00;14.50;;;;;30.84;65.93;100867.50;3724407;38;20728;-61
2021/06/25 09:20:45;;;;;;;;;14.00;13.25;;;;;31.02;66.92;100862.94;3724435;38;20824;-62
2021/06/25 09:23:14;;;;;;;;;14.75;14.00;;;;;31.19;65.89;100855.59;3724447;37;20718;-60
2021/06/25 09:25:58;;;;;;;;;14.75;14.25;;;;;31.24;65.88;100855.44;3724363;37;20825;-59
2021/06/25 09:28:29;;;;;;;;;13.50;13.50;;;;;31.45;63.58;100847.41;3724176;38;20709;-62
2021/06/25 09:30:57;;;;;;;;;11.75;11.75;;;;;31.48;63.88;100851.53;3724711;38;20706;-59
2021/06/25 09:33:24;;;;;;;;;15.50;15.25;;;;;31.53;64.29;100851.41;3724523;38;20713;-61
2021/06/25 09:35:55;;;;;;;;;13.75;13.25;;;;;31.52;62.62;100844.16;3724572;38;20704;-61
2021/06/25 09:38:39;;;;;;;;;13.25;12.25;;;;;31.51;60.99;100840.53;3724689;37;20777;-61
2021/06/25 09:41:19;;;;;;;;;12.00;11.00;;;;;31.38;61.56;100838.62;3724729;37;20792;-61
2021/06/25 09:44:00;;;;;;;;;10.75;10.75;;;;;31.42;60.83;100836.00;3724955;37;20780;-62
2021/06/25 09:46:36;;;;;;;;;13.25;12.00;;;;;31.39;52.54;100831.88;3724937;37;20790;-62
2021/06/25 09:49:14;;;;;;;;;17.00;13.75;;;;;31.39;51.11;100825.47;3724338;38;20765;-61
2021/06/25 09:51:57;;;;;;;;;12.25;12.25;;;;;31.27;49.36;100814.81;3724657;37;20767;-62
2021/06/25 09:54:28;;;;;;;;;13.25;12.00;;;;;31.22;49.30;100821.38;3724633;37;20757;-60
2021/06/25 09:57:11;;;;;;;;;10.25;10.25;;;;;31.31;50.43;100817.81;3724141;37;20740;-61
2021/06/25 10:02:37;;;;;;;;;13.00;13.00;;;;;31.65;50.82;100797.69;3724748;38;20723;-62
2021/06/25 10:05:14;;;;;;;;;15.00;14.25;;;;;31.82;51.14;100807.03;3724666;37;20655;-62
2021/06/25 10:07:41;;;;;;;;;13.75;13.75;;;;;31.68;50.85;100800.72;3724822;38;20674;-62
2021/06/25 10:10:10;;;;;;;;;15.75;15.00;;;;;31.57;53.01;100804.88;3724865;38;20642;-61
2021/06/25 10:12:45;;;;;;;;;15.50;14.25;;;;;31.56;53.21;100797.62;3725087;38;20638;-62
2021/06/25 10:15:13;;;;;;;;;19.25;17.25;;;;;31.64;52.29;100802.47;3724773;37;20635;-60
2021/06/25 10:17:41;;;;;;;;;11.00;10.75;;;;;31.68;52.07;100808.28;3724621;37;20674;-62
2021/06/25 10:20:13;;;;;;;;;11.00;10.75;;;;;31.71;50.27;100797.28;3724602;37;20617;-61
2021/06/25 10:22:49;;;;;;;;;12.50;11.50;;;;;31.72;50.37;100784.06;3724774;38;20661;-63
2021/06/25 10:25:20;;;;;;;;;11.00;11.00;;;;;31.86;48.53;100782.03;3724537;37;20637;-61
2021/06/25 10:27:50;;;;;;;;;10.00;9.00;;;;;31.89;45.45;100779.41;3724320;37;20670;-63
2021/06/25 10:30:17;;;;;;;;;13.00;12.25;;;;;31.92;43.46;100784.38;3724527;37;20640;-61
2021/06/25 10:32:44;;;;;;;;;13.25;13.25;;;;;32.04;45.37;100782.94;3724699;37;20698;-61
2021/06/25 10:35:13;;;;;;;;;9.75;9.00;;;;;32.10;42.45;100788.09;3724726;38;20635;-62
2021/06/25 10:37:45;;;;;;;;;15.25;14.00;;;;;32.25;43.68;100782.06;3725699;37;20597;-62
2021/06/25 10:40:33;;;;;;;;;59.25;48.75;;;;;32.32;42.95;100787.19;3729736;37;20712;-62
2021/06/25 10:43:03;;;;;;;;;57.00;47.25;;;;;32.34;44.83;100778.47;3726676;37;20645;-59
2021/06/25 10:45:42;;;;;;;;;10.25;10.25;;;;;32.43;43.08;100779.31;3724775;37;20649;-62
2021/06/25 18:18:35;;;;;;;;;23.75;23.75;;;;;25.54;87.23;100705.72;3728220;38;21003;-59
2021/06/25 18:21:02;;;;;;;;;21.25;20.75;;;;;25.53;87.35;100701.28;3728020;37;20906;-60
2021/06/25 18:23:29;;;;;;;;;23.50;22.25;;;;;25.48;87.57;100701.28;3727519;38;21032;-61
2021/06/25 18:25:56;;;;;;;;;20.25;19.50;;;;;25.33;87.74;100691.06;3727302;38;21064;-59
2021/06/25 18:28:22;;;;;;;;;25.25;25.25;;;;;25.25;88.08;100703.53;3727426;37;21086;-58
2021/06/25 18:30:49;;;;;;;;;25.50;24.50;;;;;25.18;87.52;100708.53;3727357;38;21040;-59
2021/06/25 18:33:19;;;;;;;;;24.00;24.00;;;;;25.08;87.71;100705.75;3727308;38;21061;-59
2021/06/25 18:35:46;;;;;;;;;31.75;28.00;;;;;25.02;88.36;100710.47;3727030;37;21053;-60
2021/06/25 18:38:12;;;;;;;;;25.00;23.50;;;;;24.93;88.71;100719.59;3727253;38;21066;-61
2021/06/25 18:40:39;;;;;;;;;21.00;21.00;;;;;24.82;88.63;100721.50;3727346;38;21058;-60
2021/06/25 18:43:08;;;;;;;;;23.00;20.75;;;;;24.75;88.92;100712.63;3727330;38;21039;-59
2021/06/25 18:45:35;;;;;;;;;20.25;19.25;;;;;24.66;88.61;100719.78;3727283;37;21040;-60
2021/06/25 18:48:02;;;;;;;;;23.75;23.50;;;;;24.60;88.45;100723.66;3727301;38;21036;-61
2021/06/25 18:50:40;;;;;;;;;24.50;23.75;;;;;24.37;88.60;100714.75;3726991;37;21005;-62
2021/06/25 18:53:06;;;;;;;;;22.25;21.75;;;;;24.29;88.82;100725.50;3726972;37;21010;-60
2021/06/25 18:55:34;;;;;;;;;20.00;20.00;;;;;24.10;89.40;100730.62;3726881;38;21015;-60
2021/06/25 18:58:01;;;;;;;;;19.00;18.50;;;;;23.98;89.80;100732.78;3726870;38;21012;-60